createdAt,value
2023-01-08T00:02:12.140Z,6.23
2023-01-08T00:05:32.744Z,6.20
2023-01-08T00:08:47.471Z,5.85
2023-01-08T00:12:02.245Z,6.27
2023-01-08T00:15:37.533Z,6.24
2023-01-08T00:19:08.089Z,5.84
2023-01-08T00:22:16.939Z,6.04
2023-01-08T00:25:55.186Z,6.26
2023-01-08T00:29:14.166Z,5.88
2023-01-08T00:32:25.221Z,6.25
2023-01-08T00:35:46.399Z,6.27
2023-01-08T00:38:50.391Z,6.22
2023-01-08T00:42:12.662Z,6.27
2023-01-08T00:45:37.503Z,5.94
2023-01-08T00:48:53.236Z,6.05
2023-01-08T00:51:55.452Z,6.26
2023-01-08T00:55:44.135Z,5.93
2023-01-08T00:58:52.191Z,6.21
2023-01-08T01:02:09.322Z,5.90
2023-01-08T01:05:36.247Z,6.09
2023-01-08T01:08:53.155Z,6.27
2023-01-08T01:12:11.967Z,6.37
2023-01-08T01:15:39.753Z,6.06
2023-01-08T01:19:06.231Z,6.07
2023-01-08T01:22:27.277Z,6.35
2023-01-08T01:25:52.374Z,6.36
2023-01-08T01:29:12.944Z,5.85
2023-01-08T01:32:50.171Z,6.39
2023-01-08T01:36:07.194Z,6.38
2023-01-08T01:39:19.785Z,6.33
2023-01-08T01:42:32.299Z,6.29
2023-01-08T01:45:42.464Z,5.92
2023-01-08T01:48:51.191Z,6.21
2023-01-08T01:52:05.777Z,6.05
2023-01-08T01:55:47.152Z,5.88
2023-01-08T01:59:02.464Z,6.16
2023-01-08T02:02:19.669Z,6.26
2023-01-08T02:05:56.238Z,5.77
2023-01-08T02:09:28.649Z,5.84
2023-01-08T02:16:35.425Z,5.85
2023-01-08T02:20:17.113Z,6.19
2023-01-08T02:28:03.386Z,6.18
2023-01-08T02:31:20.244Z,6.17
2023-01-08T02:38:41.120Z,6.17
2023-01-08T02:42:05.444Z,6.16
2023-01-08T02:45:44.576Z,5.82
2023-01-08T02:49:01.224Z,6.13
2023-01-08T02:52:12.439Z,5.61
2023-01-08T02:56:07.404Z,6.08
2023-01-08T02:59:21.252Z,6.06
2023-01-08T03:02:35.752Z,5.75
2023-01-08T03:05:56.323Z,5.97
2023-01-08T03:09:03.169Z,5.92
2023-01-08T03:12:31.305Z,5.63
2023-01-08T03:15:47.396Z,6.01
2023-01-08T03:19:18.227Z,6.00
2023-01-08T03:22:28.283Z,6.01
2023-01-08T03:25:47.791Z,5.47
2023-01-08T03:29:10.341Z,5.89
2023-01-08T03:32:16.912Z,5.97
2023-01-08T03:35:50.625Z,5.96
2023-01-08T03:39:05.135Z,5.91
2023-01-08T03:42:29.014Z,5.94
2023-01-08T03:45:37.180Z,5.91
2023-01-08T03:48:58.283Z,5.92
2023-01-08T03:52:07.316Z,5.83
2023-01-08T03:58:48.312Z,5.84
2023-01-08T04:02:05.679Z,5.86
2023-01-08T04:05:51.639Z,5.84
2023-01-08T04:09:06.162Z,5.67
2023-01-08T04:12:13.380Z,5.82
2023-01-08T04:19:05.228Z,5.52
2023-01-08T04:22:15.199Z,5.85
2023-01-08T04:25:57.003Z,5.86
2023-01-08T04:29:08.002Z,5.87
2023-01-08T04:32:20.221Z,5.79
2023-01-08T04:36:05.262Z,5.81
2023-01-08T04:39:13.744Z,5.35
2023-01-08T04:42:22.284Z,5.82
2023-01-08T04:45:55.285Z,5.76
2023-01-08T04:49:04.299Z,5.85
2023-01-08T04:52:12.893Z,5.51
2023-01-08T04:55:45.301Z,5.80
2023-01-08T04:58:47.149Z,5.82
2023-01-08T05:02:02.454Z,5.87
2023-01-08T05:05:50.121Z,5.89
2023-01-08T05:09:07.352Z,5.85
2023-01-08T05:12:11.546Z,5.85
2023-01-08T05:15:43.274Z,5.85
2023-01-08T05:18:56.709Z,5.84
2023-01-08T05:22:11.313Z,5.82
2023-01-08T05:25:39.347Z,5.83
2023-01-08T05:28:59.228Z,5.38
2023-01-08T05:32:22.351Z,5.84
2023-01-08T05:35:40.830Z,5.85
2023-01-08T05:39:01.221Z,5.81
2023-01-08T05:42:03.671Z,5.82
2023-01-08T05:45:56.266Z,5.49
2023-01-08T05:49:01.281Z,5.75
2023-01-08T05:52:17.318Z,5.76
2023-01-08T05:55:45.194Z,5.44
2023-01-08T05:58:55.764Z,5.55
2023-01-08T06:02:03.668Z,5.75
2023-01-08T06:05:45.215Z,5.36
2023-01-08T06:08:58.444Z,5.67
2023-01-08T06:12:19.224Z,5.63
2023-01-08T06:15:41.184Z,5.50
2023-01-08T06:19:03.208Z,5.73
2023-01-08T06:22:11.877Z,5.72
2023-01-08T06:25:49.276Z,5.33
2023-01-08T06:29:00.174Z,5.68
2023-01-08T06:32:08.752Z,5.74
2023-01-08T06:35:33.373Z,5.38
2023-01-08T06:38:42.063Z,5.72
2023-01-08T06:41:51.169Z,5.78
2023-01-08T06:45:22.443Z,5.76
2023-01-08T06:48:31.227Z,5.72
2023-01-08T06:51:39.966Z,5.43
2023-01-08T06:55:28.307Z,5.75
2023-01-08T06:58:38.237Z,5.57
2023-01-08T07:01:46.304Z,5.68
2023-01-08T07:05:44.450Z,5.77
2023-01-08T07:08:53.233Z,5.74
2023-01-08T07:12:02.035Z,5.80
2023-01-08T07:15:59.541Z,5.81
2023-01-08T07:19:21.188Z,5.81
2023-01-08T07:22:22.968Z,5.78
2023-01-08T07:25:55.213Z,5.85
2023-01-08T07:30:02.820Z,5.80
2023-01-08T07:42:11.817Z,5.69
2023-01-08T07:53:18.092Z,5.83
2023-01-08T08:09:39.681Z,5.85
2023-01-08T12:58:24.382Z,9.16
2023-01-08T13:02:10.453Z,9.12
2023-01-08T13:05:39.359Z,9.12
2023-01-08T13:12:46.334Z,9.05
2023-01-08T13:16:16.275Z,8.98
2023-01-08T13:23:32.534Z,8.85
2023-01-08T13:30:39.353Z,8.88
2023-01-08T13:38:25.338Z,8.92
2023-01-08T13:41:59.719Z,8.64
2023-01-08T13:46:39.137Z,8.94
2023-01-08T13:50:21.683Z,8.93
2023-01-08T14:01:47.196Z,8.97
2023-01-08T14:20:01.302Z,8.91
2023-01-08T14:57:01.280Z,8.17
2023-01-08T15:29:41.552Z,7.44
2023-01-08T16:41:41.095Z,7.38
2023-01-08T16:49:21.404Z,7.43
2023-01-08T16:53:22.405Z,7.38
2023-01-08T18:12:31.421Z,7.68
2023-01-08T18:19:39.402Z,7.75
2023-01-08T18:27:27.944Z,7.35
2023-01-08T18:35:56.331Z,7.86
2023-01-08T18:48:12.680Z,7.96
2023-01-08T19:31:45.381Z,8.24
2023-01-08T20:38:02.231Z,8.68
2023-01-08T20:42:04.166Z,9.23
2023-01-08T20:46:25.748Z,9.20
2023-01-08T21:02:20.485Z,9.23
2023-01-08T21:10:07.538Z,8.96
2023-01-08T21:17:33.464Z,8.55
2023-01-08T21:29:33.788Z,8.11
2023-01-08T21:33:01.781Z,7.98
2023-01-08T21:36:31.939Z,8.06
2023-01-08T21:40:18.851Z,7.96
2023-01-08T21:47:49.233Z,7.84
2023-01-08T21:59:17.476Z,7.81
2023-01-08T22:11:53.675Z,7.42
2023-01-08T22:15:52.525Z,7.56
2023-01-08T22:55:38.261Z,7.33
2023-01-08T22:58:42.369Z,7.25
2023-01-08T23:06:37.547Z,7.23
2023-01-08T23:10:14.276Z,7.23
2023-01-08T23:20:57.325Z,7.09
2023-01-08T23:29:01.016Z,7.10
2023-01-08T23:32:54.105Z,6.51
2023-01-08T23:36:18.633Z,6.65
2023-01-08T23:39:53.189Z,6.85
2023-01-08T23:43:35.318Z,6.89
2023-01-08T23:46:56.562Z,6.82
2023-01-08T23:50:17.673Z,6.74
2023-01-08T23:53:25.067Z,6.62
2023-01-08T23:57:00.685Z,6.55
